createdAt,value
2022-07-29T00:01:43.297Z,94.40
2022-07-29T00:04:11.491Z,94.00
2022-07-29T00:06:39.371Z,94.40
2022-07-29T00:09:06.972Z,93.80
2022-07-29T00:11:34.495Z,93.50
2022-07-29T00:14:02.061Z,93.80
2022-07-29T00:16:29.624Z,93.80
2022-07-29T00:18:59.556Z,94.00
2022-07-29T00:21:29.718Z,93.30
2022-07-29T00:23:57.081Z,92.90
2022-07-29T00:26:24.456Z,92.80
2022-07-29T00:28:51.769Z,92.80
2022-07-29T00:31:19.215Z,92.90
2022-07-29T00:33:46.673Z,93.00
2022-07-29T00:36:14.105Z,93.00
2022-07-29T00:38:45.280Z,93.30
2022-07-29T00:41:13.292Z,92.90
2022-07-29T00:43:40.743Z,92.90
2022-07-29T00:46:08.145Z,93.20
2022-07-29T00:48:35.846Z,93.30
2022-07-29T00:51:04.793Z,93.80
2022-07-29T00:53:33.461Z,93.20
2022-07-29T00:56:00.868Z,93.70
2022-07-29T00:58:28.542Z,93.80
2022-07-29T01:00:56.110Z,93.60
2022-07-29T01:03:23.624Z,93.60
2022-07-29T01:05:52.037Z,94.10
2022-07-29T01:08:20.472Z,94.10
2022-07-29T01:10:48.775Z,94.70
2022-07-29T01:13:17.411Z,94.70
2022-07-29T01:15:48.819Z,94.50
2022-07-29T01:18:25.198Z,94.00
2022-07-29T01:21:06.264Z,94.60
2022-07-29T01:23:52.337Z,95.10
2022-07-29T01:26:22.462Z,95.40
2022-07-29T01:29:12.776Z,95.40
2022-07-29T01:31:58.983Z,95.60
2022-07-29T01:34:49.694Z,95.90
2022-07-29T01:37:32.958Z,95.70
2022-07-29T01:40:02.974Z,96.10
2022-07-29T01:42:46.037Z,96.00
2022-07-29T01:45:41.638Z,96.30
2022-07-29T01:48:17.873Z,96.60
2022-07-29T01:50:51.511Z,96.80
2022-07-29T01:53:37.879Z,97.10
2022-07-29T01:56:09.928Z,96.80
2022-07-29T01:58:41.413Z,96.90
2022-07-29T02:01:12.178Z,96.80
2022-07-29T02:03:43.891Z,96.80
2022-07-29T02:06:13.445Z,96.80
2022-07-29T02:08:41.775Z,96.90
2022-07-29T02:11:10.077Z,96.90
2022-07-29T02:13:38.917Z,97.00
2022-07-29T02:16:09.555Z,97.50
2022-07-29T02:18:40.098Z,98.00
2022-07-29T02:21:15.777Z,98.50
2022-07-29T02:23:51.140Z,99.10
2022-07-29T02:26:20.476Z,98.80
2022-07-29T02:28:49.822Z,98.90
2022-07-29T02:31:20.538Z,98.90
2022-07-29T02:33:49.039Z,98.90
2022-07-29T02:36:17.517Z,99.10
2022-07-29T02:38:52.626Z,99.10
2022-07-29T02:41:31.340Z,99.30
2022-07-29T02:44:05.931Z,99.50
2022-07-29T02:46:36.766Z,99.60
2022-07-29T02:49:18.480Z,99.70
2022-07-29T02:52:21.143Z,99.90
2022-07-29T02:55:07.865Z,99.90
2022-07-29T02:57:53.971Z,99.90
2022-07-29T03:00:26.197Z,99.90
2022-07-29T03:02:57.074Z,99.90
2022-07-29T03:05:25.353Z,99.90
2022-07-29T03:08:05.497Z,99.90
2022-07-29T03:10:33.724Z,99.90
2022-07-29T03:13:02.080Z,99.90
2022-07-29T03:15:30.307Z,99.90
2022-07-29T03:17:59.122Z,99.90
2022-07-29T03:20:28.429Z,99.90
2022-07-29T03:22:55.874Z,99.90
2022-07-29T03:25:23.381Z,99.90
2022-07-29T03:27:50.964Z,99.90
2022-07-29T03:30:22.077Z,99.90
2022-07-29T03:32:52.085Z,99.90
2022-07-29T03:35:21.013Z,99.90
2022-07-29T03:37:48.480Z,99.90
2022-07-29T03:40:23.584Z,99.90
2022-07-29T03:42:52.673Z,99.90
2022-07-29T03:45:21.546Z,99.90
2022-07-29T03:47:59.893Z,99.90
2022-07-29T03:50:29.999Z,99.90
2022-07-29T03:52:58.137Z,99.90
2022-07-29T03:55:27.224Z,99.90
2022-07-29T03:57:56.728Z,99.90
2022-07-29T04:00:26.561Z,99.90
2022-07-29T04:02:54.023Z,99.90
2022-07-29T04:05:22.181Z,99.90
2022-07-29T04:07:50.162Z,99.90
2022-07-29T04:10:26.314Z,99.90
2022-07-29T04:13:00.363Z,99.90
2022-07-29T04:15:31.018Z,99.90
2022-07-29T04:18:00.361Z,99.90
2022-07-29T04:20:28.221Z,99.90
2022-07-29T04:22:55.561Z,99.90
2022-07-29T04:25:23.108Z,99.90
2022-07-29T04:28:02.676Z,99.90
2022-07-29T04:30:31.674Z,99.90
2022-07-29T04:32:59.809Z,99.90
2022-07-29T04:35:27.629Z,99.90
2022-07-29T04:37:55.139Z,99.90
2022-07-29T04:40:22.885Z,99.90
2022-07-29T04:42:50.257Z,99.90
2022-07-29T04:45:22.226Z,99.90
2022-07-29T04:47:50.824Z,99.90
2022-07-29T04:50:18.222Z,99.90
2022-07-29T04:52:45.615Z,99.90
2022-07-29T04:55:13.199Z,99.90
2022-07-29T04:57:40.589Z,99.90
2022-07-29T05:00:08.925Z,99.90
2022-07-29T05:02:36.320Z,99.90
2022-07-29T05:05:03.966Z,99.90
2022-07-29T05:07:31.387Z,99.90
2022-07-29T05:09:58.890Z,99.90
2022-07-29T05:12:26.930Z,99.90
2022-07-29T05:14:54.542Z,99.90
2022-07-29T05:17:21.928Z,99.90
2022-07-29T05:19:49.391Z,99.90
2022-07-29T05:22:16.717Z,99.90
2022-07-29T05:24:44.098Z,99.90
2022-07-29T05:27:11.542Z,99.90
2022-07-29T05:29:42.595Z,99.90
2022-07-29T05:32:13.558Z,99.90
2022-07-29T05:34:50.076Z,99.90
2022-07-29T05:37:20.534Z,99.90
2022-07-29T05:39:50.453Z,99.90
2022-07-29T05:42:23.834Z,99.90
2022-07-29T05:44:51.795Z,99.90
2022-07-29T05:47:19.801Z,99.90
2022-07-29T05:49:47.301Z,99.90
2022-07-29T05:52:14.773Z,99.90
2022-07-29T05:54:42.336Z,99.90
2022-07-29T05:57:15.724Z,99.90
2022-07-29T05:59:43.011Z,99.90
2022-07-29T06:02:10.399Z,99.90
2022-07-29T06:04:37.821Z,99.90
2022-07-29T06:07:05.763Z,99.90
2022-07-29T06:09:36.154Z,99.90
2022-07-29T06:12:04.248Z,99.90
2022-07-29T06:14:31.701Z,99.90
2022-07-29T06:16:59.183Z,99.90
2022-07-29T06:19:26.856Z,99.90
2022-07-29T06:21:54.592Z,99.90
2022-07-29T06:24:21.994Z,99.90
2022-07-29T06:26:49.404Z,99.90
2022-07-29T06:29:16.805Z,99.90
2022-07-29T06:31:44.212Z,99.90
2022-07-29T06:34:11.609Z,99.90
2022-07-29T06:36:39.715Z,99.90
2022-07-29T06:39:09.233Z,99.90
2022-07-29T06:41:36.847Z,99.90
2022-07-29T06:44:10.841Z,99.90
2022-07-29T06:46:38.380Z,99.90
2022-07-29T06:49:06.195Z,99.90
2022-07-29T06:51:33.843Z,99.90
2022-07-29T06:54:02.738Z,99.90
2022-07-29T06:56:40.337Z,99.90
2022-07-29T06:59:09.645Z,99.90
2022-07-29T07:01:42.136Z,99.90
2022-07-29T07:04:10.652Z,99.90
2022-07-29T07:06:38.712Z,99.90
2022-07-29T07:09:06.569Z,99.90
2022-07-29T07:11:34.073Z,99.90
2022-07-29T07:14:03.792Z,99.90
2022-07-29T07:16:32.694Z,99.80
2022-07-29T07:19:00.568Z,99.90
2022-07-29T07:21:30.308Z,99.10
2022-07-29T07:23:58.551Z,99.50
2022-07-29T07:26:26.359Z,99.30
2022-07-29T07:28:54.070Z,98.90
2022-07-29T07:31:21.529Z,98.90
2022-07-29T07:33:49.125Z,98.70
2022-07-29T07:36:16.508Z,98.40
2022-07-29T07:38:43.915Z,98.30
2022-07-29T07:41:11.296Z,98.30
2022-07-29T07:43:38.825Z,98.30
2022-07-29T07:46:06.399Z,98.10
2022-07-29T07:48:35.890Z,98.00
2022-07-29T07:51:03.259Z,96.90
2022-07-29T07:53:31.432Z,96.50
2022-07-29T07:56:15.465Z,96.40
2022-07-29T07:58:42.950Z,96.20
2022-07-29T08:01:10.678Z,96.20
2022-07-29T08:03:38.747Z,96.20
2022-07-29T08:06:06.585Z,95.70
2022-07-29T08:08:34.163Z,95.50
2022-07-29T08:11:06.906Z,94.70
2022-07-29T08:13:38.635Z,94.50
2022-07-29T08:16:14.385Z,94.80
2022-07-29T08:18:44.067Z,94.10
2022-07-29T08:21:15.273Z,94.00
2022-07-29T08:23:57.643Z,94.50
2022-07-29T08:26:25.451Z,94.00
2022-07-29T08:28:52.806Z,93.40
2022-07-29T08:31:20.297Z,93.40
2022-07-29T08:33:47.724Z,93.80
2022-07-29T08:36:15.155Z,92.40
2022-07-29T08:38:42.563Z,92.70
2022-07-29T08:41:10.244Z,92.60
2022-07-29T08:43:39.132Z,92.90
2022-07-29T08:46:06.685Z,93.20
2022-07-29T08:48:35.220Z,92.10
2022-07-29T08:51:02.854Z,92.10
2022-07-29T08:53:32.827Z,92.30
2022-07-29T08:56:00.811Z,91.90
2022-07-29T08:58:32.253Z,92.10
2022-07-29T09:01:04.879Z,90.60
2022-07-29T09:03:37.641Z,91.10
2022-07-29T09:06:05.648Z,91.30
2022-07-29T09:08:33.844Z,91.80
2022-07-29T09:11:05.324Z,91.50
2022-07-29T09:13:33.451Z,91.30
2022-07-29T09:16:05.639Z,90.70
2022-07-29T09:18:44.700Z,90.70
2022-07-29T09:21:33.223Z,89.50
2022-07-29T09:24:09.376Z,89.40
2022-07-29T09:26:40.016Z,90.00
2022-07-29T09:29:17.966Z,87.90
2022-07-29T09:31:47.923Z,87.10
2022-07-29T09:34:17.869Z,87.30
2022-07-29T09:36:47.547Z,86.10
2022-07-29T09:39:17.730Z,85.70
2022-07-29T09:41:53.959Z,85.00
2022-07-29T09:44:22.767Z,84.30
2022-07-29T09:47:07.654Z,86.00
2022-07-29T09:50:04.700Z,84.60
2022-07-29T09:52:32.109Z,83.40
2022-07-29T09:55:07.107Z,83.70
2022-07-29T09:57:34.575Z,84.10
2022-07-29T10:00:11.037Z,83.00
2022-07-29T10:02:44.448Z,82.80
2022-07-29T10:05:22.230Z,82.80
2022-07-29T10:07:59.153Z,82.80
2022-07-29T10:10:28.079Z,83.70
2022-07-29T10:13:06.937Z,83.20
2022-07-29T10:15:39.545Z,83.20
2022-07-29T10:18:07.882Z,82.00
2022-07-29T10:20:35.778Z,81.90
2022-07-29T10:23:03.971Z,81.70
2022-07-29T10:25:32.386Z,81.20
2022-07-29T10:28:00.085Z,80.40
2022-07-29T10:30:27.980Z,79.30
2022-07-29T10:33:15.210Z,79.50
2022-07-29T10:35:58.518Z,79.80
2022-07-29T10:38:40.874Z,79.50
2022-07-29T10:41:29.111Z,78.90
2022-07-29T10:44:07.594Z,80.40
2022-07-29T10:46:39.785Z,80.10
2022-07-29T10:49:27.819Z,80.70
2022-07-29T10:52:02.464Z,79.00
2022-07-29T10:54:48.861Z,79.60
2022-07-29T10:57:53.905Z,79.00
2022-07-29T11:00:16.966Z,78.90
2022-07-29T11:02:46.831Z,79.10
2022-07-29T11:05:20.127Z,78.10
2022-07-29T11:08:20.066Z,78.90
2022-07-29T11:10:53.486Z,78.10
2022-07-29T11:13:48.887Z,77.70
2022-07-29T11:16:17.104Z,78.50
2022-07-29T11:19:26.386Z,78.60
2022-07-29T11:22:00.449Z,77.20
2022-07-29T11:24:32.130Z,76.60
2022-07-29T11:27:19.779Z,76.90
2022-07-29T11:29:57.272Z,76.00
2022-07-29T11:32:36.078Z,76.30
2022-07-29T11:35:38.297Z,76.90
2022-07-29T11:38:28.856Z,77.10
2022-07-29T11:41:18.499Z,74.60
2022-07-29T11:43:58.398Z,75.60
2022-07-29T11:46:49.617Z,75.50
2022-07-29T11:49:32.365Z,75.30
2022-07-29T11:52:04.931Z,75.30
2022-07-29T11:54:38.743Z,74.70
2022-07-29T11:57:36.027Z,76.10
2022-07-29T12:00:12.493Z,74.50
2022-07-29T12:02:43.811Z,74.20
2022-07-29T12:05:35.920Z,73.80
2022-07-29T12:08:12.696Z,74.00
2022-07-29T12:10:43.377Z,73.90
2022-07-29T12:13:11.963Z,74.50
2022-07-29T12:15:47.188Z,74.60
2022-07-29T12:18:19.672Z,74.60
2022-07-29T12:20:59.438Z,74.20
2022-07-29T12:23:35.126Z,74.90
2022-07-29T12:26:07.284Z,73.30
2022-07-29T12:28:39.423Z,73.60
2022-07-29T12:31:08.257Z,74.10
2022-07-29T12:33:36.094Z,74.40
2022-07-29T12:36:09.559Z,73.50
2022-07-29T12:38:41.269Z,73.70
2022-07-29T12:41:08.802Z,73.20
2022-07-29T12:43:36.346Z,73.70
2022-07-29T12:46:17.149Z,73.30
2022-07-29T12:48:45.333Z,73.30
2022-07-29T12:51:15.333Z,72.90
2022-07-29T12:54:02.258Z,71.20
2022-07-29T12:56:42.195Z,71.40
2022-07-29T12:59:26.424Z,72.20
2022-07-29T13:01:53.787Z,72.50
2022-07-29T13:04:32.482Z,71.80
2022-07-29T13:07:08.344Z,72.40
2022-07-29T13:09:43.541Z,72.80
2022-07-29T13:12:12.901Z,72.80
2022-07-29T13:14:46.389Z,72.10
2022-07-29T13:17:20.067Z,72.40
2022-07-29T13:19:52.242Z,72.10
2022-07-29T13:22:25.749Z,72.80
2022-07-29T13:24:55.789Z,72.20
2022-07-29T13:27:25.585Z,71.50
2022-07-29T13:29:53.902Z,72.50
2022-07-29T13:32:28.436Z,72.30
2022-07-29T13:34:57.766Z,72.60
2022-07-29T13:37:25.322Z,71.90
2022-07-29T13:39:53.924Z,71.00
2022-07-29T13:42:23.457Z,70.60
2022-07-29T13:44:52.600Z,71.60
2022-07-29T13:47:32.221Z,72.40
2022-07-29T13:50:01.862Z,72.30
2022-07-29T13:52:30.041Z,72.60
2022-07-29T13:54:57.716Z,71.50
2022-07-29T13:57:25.433Z,70.90
2022-07-29T13:59:54.359Z,70.90
2022-07-29T14:02:25.920Z,70.90
2022-07-29T14:04:56.093Z,71.20
2022-07-29T14:07:23.950Z,71.60
2022-07-29T14:09:51.473Z,71.40
2022-07-29T14:12:19.098Z,70.80
2022-07-29T14:14:47.184Z,70.40
2022-07-29T14:17:15.863Z,72.00
2022-07-29T14:19:43.852Z,70.80
2022-07-29T14:22:11.332Z,70.90
2022-07-29T14:24:39.381Z,71.60
2022-07-29T14:27:08.231Z,70.70
2022-07-29T14:29:38.278Z,72.20
2022-07-29T14:32:08.060Z,74.80
2022-07-29T14:34:36.778Z,74.00
2022-07-29T14:37:06.424Z,73.50
2022-07-29T14:39:39.306Z,74.40
2022-07-29T14:42:11.627Z,74.50
2022-07-29T14:44:42.261Z,74.50
2022-07-29T14:47:10.411Z,75.30
2022-07-29T14:49:37.930Z,74.20
2022-07-29T14:52:05.619Z,73.40
2022-07-29T14:54:33.273Z,74.10
2022-07-29T14:57:00.677Z,76.00
2022-07-29T14:59:28.213Z,76.40
2022-07-29T15:01:55.720Z,77.40
2022-07-29T15:04:23.338Z,77.60
2022-07-29T15:06:51.117Z,77.20
2022-07-29T15:09:18.965Z,78.50
2022-07-29T15:11:46.333Z,77.80
2022-07-29T15:14:13.696Z,78.20
2022-07-29T15:16:44.053Z,78.20
2022-07-29T15:19:14.486Z,78.80
2022-07-29T15:21:48.445Z,79.00
2022-07-29T15:24:19.822Z,79.20
2022-07-29T15:26:48.265Z,79.70
2022-07-29T15:29:16.289Z,79.30
2022-07-29T15:31:44.297Z,79.60
2022-07-29T15:34:11.760Z,79.60
2022-07-29T15:36:54.763Z,79.70
2022-07-29T15:39:23.237Z,80.50
2022-07-29T15:41:50.878Z,80.80
2022-07-29T15:44:19.256Z,81.00
2022-07-29T15:47:04.514Z,81.80
2022-07-29T15:49:46.370Z,82.10
2022-07-29T15:52:26.191Z,82.60
2022-07-29T15:54:57.733Z,82.60
2022-07-29T15:57:25.690Z,83.10
2022-07-29T15:59:53.182Z,83.70
2022-07-29T16:02:20.615Z,84.80
2022-07-29T16:04:48.043Z,85.40
2022-07-29T16:07:16.216Z,86.10
2022-07-29T16:09:49.296Z,89.40
2022-07-29T16:12:18.573Z,90.60
2022-07-29T16:14:46.048Z,90.70
2022-07-29T16:17:14.592Z,91.90
2022-07-29T16:19:43.767Z,92.30
2022-07-29T16:22:11.718Z,93.60
2022-07-29T16:24:39.463Z,93.30
2022-07-29T16:27:07.468Z,92.90
2022-07-29T16:29:36.968Z,93.80
2022-07-29T16:32:05.958Z,93.90
2022-07-29T16:34:33.684Z,95.40
2022-07-29T16:37:01.164Z,95.90
2022-07-29T16:39:29.492Z,96.60
2022-07-29T16:42:00.218Z,96.40
2022-07-29T16:44:29.143Z,97.10
2022-07-29T16:46:59.362Z,97.50
2022-07-29T16:49:28.435Z,98.50
2022-07-29T16:51:55.990Z,99.90
2022-07-29T16:54:23.410Z,99.90
2022-07-29T16:56:50.764Z,99.90
2022-07-29T16:59:18.472Z,99.90
2022-07-29T17:01:45.898Z,99.90
2022-07-29T17:04:14.991Z,99.90
2022-07-29T17:06:42.586Z,99.90
2022-07-29T17:09:11.605Z,99.90
2022-07-29T17:11:51.956Z,99.90
2022-07-29T17:14:27.717Z,99.90
2022-07-29T17:17:00.186Z,99.90
2022-07-29T17:19:29.940Z,99.90
2022-07-29T17:22:06.458Z,99.90
2022-07-29T17:24:38.117Z,99.90
2022-07-29T17:27:05.945Z,99.90
2022-07-29T17:29:34.839Z,99.90
2022-07-29T17:32:02.298Z,99.90
2022-07-29T17:34:29.707Z,99.90
2022-07-29T17:36:57.893Z,99.90
2022-07-29T17:39:25.546Z,99.90
2022-07-29T17:41:53.249Z,99.90
2022-07-29T17:44:20.657Z,99.90
2022-07-29T17:46:48.310Z,99.90
2022-07-29T17:49:15.793Z,99.90
2022-07-29T17:51:43.353Z,99.90
2022-07-29T17:54:10.722Z,99.90
2022-07-29T17:56:38.306Z,99.90
2022-07-29T17:59:10.131Z,99.90
2022-07-29T18:01:40.043Z,99.90
2022-07-29T18:04:08.887Z,99.90
2022-07-29T18:06:36.443Z,99.90
2022-07-29T18:09:04.567Z,99.90
2022-07-29T18:11:32.532Z,99.90
2022-07-29T18:14:02.504Z,99.90
2022-07-29T18:16:30.096Z,99.90
2022-07-29T18:18:57.468Z,99.90
2022-07-29T18:21:43.397Z,99.90
2022-07-29T18:24:12.309Z,99.90
2022-07-29T18:26:39.769Z,99.90
2022-07-29T18:29:07.156Z,99.90
2022-07-29T18:31:38.042Z,99.90
2022-07-29T18:34:05.489Z,99.90
2022-07-29T18:36:32.910Z,99.90
2022-07-29T18:39:00.284Z,99.90
2022-07-29T18:41:27.740Z,99.90
2022-07-29T18:43:55.146Z,99.90
2022-07-29T18:46:22.533Z,99.90
2022-07-29T18:48:50.446Z,99.90
2022-07-29T18:51:17.814Z,99.90
2022-07-29T18:53:45.571Z,99.90
2022-07-29T18:56:13.072Z,99.90
2022-07-29T18:58:40.482Z,99.90
2022-07-29T19:01:07.882Z,99.90
2022-07-29T19:03:35.372Z,99.90
2022-07-29T19:06:02.979Z,99.90
2022-07-29T19:08:31.603Z,99.90
2022-07-29T19:10:58.980Z,99.90
2022-07-29T19:13:26.431Z,99.90
2022-07-29T19:15:53.879Z,99.90
2022-07-29T19:18:21.288Z,99.90
2022-07-29T19:20:48.688Z,99.90
2022-07-29T19:23:17.221Z,99.90
2022-07-29T19:25:53.004Z,99.90
2022-07-29T19:28:22.055Z,99.90
2022-07-29T19:30:50.104Z,99.90
2022-07-29T19:33:19.032Z,99.90
2022-07-29T19:35:49.332Z,99.90
2022-07-29T19:38:18.966Z,99.90
2022-07-29T19:40:46.482Z,99.90
2022-07-29T19:43:49.720Z,99.90
2022-07-29T19:46:01.697Z,99.90
2022-07-29T19:48:29.228Z,99.90
2022-07-29T19:50:56.970Z,99.90
2022-07-29T19:53:24.467Z,99.90
2022-07-29T19:55:51.950Z,99.90
2022-07-29T19:58:19.548Z,99.90
2022-07-29T20:00:49.988Z,99.90
2022-07-29T20:03:17.552Z,99.90
2022-07-29T20:05:48.020Z,99.90
2022-07-29T20:08:15.805Z,99.90
2022-07-29T20:10:43.373Z,99.90
2022-07-29T20:13:10.940Z,99.90
2022-07-29T20:15:38.451Z,99.90
2022-07-29T20:18:06.058Z,99.90
2022-07-29T20:20:33.607Z,99.90
2022-07-29T20:23:02.442Z,99.90
2022-07-29T20:25:30.024Z,99.90
2022-07-29T20:27:57.423Z,99.90
2022-07-29T20:30:24.931Z,99.90
2022-07-29T20:32:52.335Z,99.90
2022-07-29T20:35:22.465Z,99.90
2022-07-29T20:37:55.619Z,99.90
2022-07-29T20:40:25.665Z,99.90
2022-07-29T20:42:54.063Z,99.90
2022-07-29T20:45:23.440Z,99.90
2022-07-29T20:47:52.151Z,99.90
2022-07-29T20:50:23.427Z,99.90
2022-07-29T20:52:52.236Z,99.90
2022-07-29T20:55:19.739Z,99.90
2022-07-29T20:57:47.115Z,99.90
2022-07-29T21:00:14.724Z,99.90
2022-07-29T21:02:42.424Z,99.90
2022-07-29T21:05:10.108Z,99.90
2022-07-29T21:07:37.481Z,99.90
2022-07-29T21:10:05.353Z,99.90
2022-07-29T21:12:33.800Z,99.90
2022-07-29T21:15:06.261Z,99.90
2022-07-29T21:17:36.090Z,99.90
2022-07-29T21:20:06.714Z,99.90
2022-07-29T21:22:34.308Z,99.90
2022-07-29T21:25:01.733Z,99.90
2022-07-29T21:27:47.803Z,99.90
2022-07-29T21:30:15.216Z,99.90
2022-07-29T21:32:42.698Z,99.90
2022-07-29T21:35:23.368Z,99.90
2022-07-29T21:37:59.341Z,99.90
2022-07-29T21:40:26.699Z,99.90
2022-07-29T21:42:54.078Z,99.90
2022-07-29T21:45:21.530Z,99.90
2022-07-29T21:47:48.890Z,99.90
2022-07-29T21:50:16.288Z,99.90
2022-07-29T21:52:43.729Z,99.90
2022-07-29T21:55:11.477Z,99.90
2022-07-29T21:57:39.042Z,99.90
2022-07-29T22:00:10.564Z,99.90
2022-07-29T22:02:40.583Z,99.90
2022-07-29T22:05:08.729Z,99.90
2022-07-29T22:07:54.487Z,99.90
2022-07-29T22:10:27.814Z,99.90
2022-07-29T22:12:57.937Z,99.90
2022-07-29T22:15:27.206Z,99.90
2022-07-29T22:17:54.692Z,99.90
2022-07-29T22:20:22.400Z,99.90
2022-07-29T22:22:49.767Z,99.90
2022-07-29T22:25:17.871Z,99.90
2022-07-29T22:27:45.397Z,99.90
2022-07-29T22:30:13.725Z,99.90
2022-07-29T22:32:41.975Z,99.90
2022-07-29T22:35:10.384Z,99.90
2022-07-29T22:37:38.036Z,99.90
2022-07-29T22:40:06.226Z,99.90
2022-07-29T22:42:35.084Z,99.90
2022-07-29T22:45:02.700Z,99.90
2022-07-29T22:47:46.422Z,99.90
2022-07-29T22:50:16.961Z,99.90
2022-07-29T22:52:48.304Z,99.90
2022-07-29T22:55:16.076Z,99.90
2022-07-29T22:57:43.518Z,99.90
2022-07-29T23:00:11.891Z,99.90
2022-07-29T23:02:40.322Z,99.90
2022-07-29T23:05:09.005Z,99.90
2022-07-29T23:07:36.636Z,99.90
2022-07-29T23:10:04.935Z,99.90
2022-07-29T23:12:32.294Z,99.90
2022-07-29T23:14:59.700Z,99.90
2022-07-29T23:17:27.123Z,99.90
2022-07-29T23:19:54.447Z,99.90
2022-07-29T23:22:21.786Z,99.90
2022-07-29T23:24:49.111Z,99.90
2022-07-29T23:27:16.543Z,99.90
2022-07-29T23:29:43.894Z,99.90
2022-07-29T23:32:11.233Z,99.90
2022-07-29T23:34:38.688Z,99.90
2022-07-29T23:37:06.179Z,99.90
2022-07-29T23:39:33.566Z,99.90
2022-07-29T23:42:01.131Z,99.90
2022-07-29T23:44:28.531Z,99.90
2022-07-29T23:46:55.901Z,99.90
2022-07-29T23:49:23.377Z,99.90
2022-07-29T23:51:50.832Z,99.90
2022-07-29T23:54:18.195Z,99.90
2022-07-29T23:56:45.563Z,99.90
2022-07-29T23:59:13.879Z,99.90
